Time;durP1;ratioP1;P1;durP2;ratioP2;P2;SDS_P1;SDS_P2;PMS_P1;PMS_P2;Temp;Humidity;BMP_temperature;BMP_pressure;BME280_temperature;BME280_humidity;BME280_pressure;Samples;Min_cycle;Max_cycle;Signal;HPM_P1;HPM_P2
2024/01/31 00:02:29;;;;;;;25;14.1;;;;;;;-1.39;81.4;100190;;;;
2024/01/31 00:12:29;;;;;;;25;14.1;;;;;;;-1.52;81.25;100190;;;;
2024/01/31 00:23:29;;;;;;;25;14.1;;;;;;;-1.55;81.55;100201.66666667;;;;
2024/01/31 00:34:29;;;;;;;26.7;14.5;;;;;;;-1.57;81.74;100203.33333333;;;;
2024/01/31 00:44:29;;;;;;;26.7;14.5;;;;;;;-1.56;81.55;100193.33333333;;;;
2024/01/31 00:55:29;;;;;;;26.7;14.5;;;;;;;-1.59;81.74;100196.66666667;;;;
2024/01/31 01:06:29;;;;;;;19;11.5;;;;;;;-1.57;81.69;100191.66666667;;;;
2024/01/31 01:17:29;;;;;;;19;11.5;;;;;;;-1.5;81.86;100193.33333333;;;;
2024/01/31 01:28:29;;;;;;;19;11.5;;;;;;;-1.47;81.57;100195;;;;
2024/01/31 01:39:29;;;;;;;19.5;10.4;;;;;;;-1.52;81.34;100193.33333333;;;;
2024/01/31 01:50:29;;;;;;;19.5;10.4;;;;;;;-1.48;82.11;100183.33333333;;;;
2024/01/31 02:00:31;;;;;;;19.5;10.4;;;;;;;-1.36;81.72;100191.66666667;;;;
2024/01/31 02:10:29;;;;;;;16.4;9.8;;;;;;;-1.36;81.51;100188.33333333;;;;
2024/01/31 02:20:29;;;;;;;16.4;9.8;;;;;;;-1.33;81.79;100181.66666667;;;;
2024/01/31 02:31:28;;;;;;;16.1;9.9;;;;;;;-1.41;81.31;100180;;;;
2024/01/31 02:41:29;;;;;;;16.1;9.9;;;;;;;-1.44;81.45;100173.33333333;;;;
2024/01/31 02:51:29;;;;;;;16.1;9.9;;;;;;;-1.52;81.57;100168.33333333;;;;
2024/01/31 03:02:28;;;;;;;16.3;7.8;;;;;;;-1.61;81.55;100165;;;;
2024/01/31 03:12:28;;;;;;;16.3;7.8;;;;;;;-1.64;81.52;100171.66666667;;;;
2024/01/31 03:23:28;;;;;;;16.3;7.8;;;;;;;-1.61;82.12;100173.33333333;;;;
2024/01/31 03:33:29;;;;;;;13.7;9;;;;;;;-1.44;82.44;100170;;;;
2024/01/31 03:44:29;;;;;;;13.7;9;;;;;;;-1.25;82.22;100171.66666667;;;;
2024/01/31 03:55:32;;;;;;;13.7;9;;;;;;;-1.06;81.54;100175;;;;
2024/01/31 04:05:29;;;;;;;17;9;;;;;;;-1.08;81.22;100173.33333333;;;;
2024/01/31 04:16:29;;;;;;;17;9;;;;;;;-1.09;81.51;100173.33333333;;;;
2024/01/31 04:26:29;;;;;;;17;9;;;;;;;-1.08;81.68;100176.66666667;;;;
2024/01/31 04:36:29;;;;;;;15.5;8.8;;;;;;;-1.04;81.98;100168.33333333;;;;
2024/01/31 04:46:29;;;;;;;15.5;8.8;;;;;;;-1.01;82.1;100176.66666667;;;;
2024/01/31 04:57:29;;;;;;;15.5;8.8;;;;;;;-0.95;82.17;100165;;;;
2024/01/31 05:08:29;;;;;;;18.9;10.6;;;;;;;-0.84;82.15;100171.66666667;;;;
2024/01/31 05:18:29;;;;;;;18.9;10.6;;;;;;;-0.71;81.78;100186.66666667;;;;
2024/01/31 05:29:29;;;;;;;18.9;10.6;;;;;;;-0.6;81.55;100200;;;;
2024/01/31 05:40:29;;;;;;;17.2;10.1;;;;;;;-0.57;81.24;100190;;;;
2024/01/31 05:50:29;;;;;;;17.2;10.1;;;;;;;-0.45;81.27;100186.66666667;;;;
2024/01/31 06:01:29;;;;;;;19.5;11.3;;;;;;;-0.32;81.16;100178.33333333;;;;
2024/01/31 06:12:29;;;;;;;19.5;11.3;;;;;;;-0.11;80.95;100188.33333333;;;;
2024/01/31 06:23:29;;;;;;;19.5;11.3;;;;;;;0.05;80.4;100185;;;;
2024/01/31 06:34:29;;;;;;;23.5;11.9;;;;;;;0.2;79.7;100200;;;;
2024/01/31 06:44:29;;;;;;;23.5;11.9;;;;;;;0.35;79.28;100196.66666667;;;;
2024/01/31 06:55:29;;;;;;;23.5;11.9;;;;;;;0.52;79.29;100213.33333333;;;;
2024/01/31 07:05:29;;;;;;;22.3;12;;;;;;;0.59;78.78;100200;;;;
2024/01/31 07:16:29;;;;;;;22.3;12;;;;;;;0.88;78.12;100216;;;;
2024/01/31 07:27:29;;;;;;;22.3;12;;;;;;;0.93;77.94;100212;;;;
2024/01/31 07:38:29;;;;;;;29.2;15.2;;;;;;;1.21;77.3;100240;;;;
2024/01/31 07:48:29;;;;;;;29.2;15.2;;;;;;;1.34;77;100226;;;;
2024/01/31 07:59:29;;;;;;;29.2;15.2;;;;;;;1.76;76.74;100222;;;;
2024/01/31 08:10:29;;;;;;;24.3;15.4;;;;;;;2.12;76.32;100232;;;;
2024/01/31 08:20:29;;;;;;;24.3;15.4;;;;;;;2.45;76.1;100244;;;;
2024/01/31 08:31:29;;;;;;;21.9;13.8;;;;;;;2.67;75.09;100244;;;;
2024/01/31 08:41:29;;;;;;;21.9;13.8;;;;;;;2.86;74.35;100254;;;;
2024/01/31 08:52:29;;;;;;;21.9;13.8;;;;;;;3;73.88;100256.66666667;;;;
2024/01/31 09:02:29;;;;;;;27.4;16.7;;;;;;;3.11;74.3;100254;;;;
2024/01/31 09:13:29;;;;;;;27.4;16.7;;;;;;;3.22;73.82;100254;;;;
2024/01/31 09:24:29;;;;;;;27.4;16.7;;;;;;;3.2;74.42;100240;;;;
2024/01/31 09:35:29;;;;;;;27.3;16.7;;;;;;;3.27;74.21;100252;;;;
2024/01/31 09:46:29;;;;;;;27.3;16.7;;;;;;;3.69;74.74;100242;;;;
2024/01/31 09:56:31;;;;;;;27.3;16.7;;;;;;;3.73;72.9;100242;;;;
2024/01/31 10:06:29;;;;;;;35.9;21.3;;;;;;;3.7;73.55;100240;;;;
2024/01/31 10:16:29;;;;;;;35.9;21.3;;;;;;;3.77;73.52;100226;;;;
2024/01/31 10:26:29;;;;;;;35.9;21.3;;;;;;;3.85;73.13;100218;;;;
2024/01/31 10:36:29;;;;;;;34.6;21.6;;;;;;;4.04;73.29;100216;;;;
2024/01/31 10:46:29;;;;;;;34.6;21.6;;;;;;;4.14;73.89;100196;;;;
2024/01/31 10:56:29;;;;;;;34.6;21.6;;;;;;;4.36;73.03;100196;;;;
2024/01/31 11:07:29;;;;;;;40.7;25.2;;;;;;;4.47;72.72;100188;;;;
2024/01/31 11:18:29;;;;;;;40.7;25.2;;;;;;;4.48;72.51;100190;;;;
2024/01/31 11:29:30;;;;;;;33.3;24.1;;;;;;;4.3;72.29;100192;;;;
2024/01/31 11:39:29;;;;;;;33.3;24.1;;;;;;;4.51;73.26;100196;;;;
2024/01/31 11:50:29;;;;;;;33.3;24.1;;;;;;;4.29;74.12;100186;;;;
2024/01/31 12:01:29;;;;;;;34.4;21.4;;;;;;;4.37;73.69;100156;;;;
2024/01/31 12:12:29;;;;;;;34.4;21.4;;;;;;;4.45;73.96;100148;;;;
2024/01/31 12:23:29;;;;;;;34.4;21.4;;;;;;;4.22;73.67;100158;;;;
2024/01/31 12:33:29;;;;;;;35.4;21.8;;;;;;;4.17;74.34;100174;;;;
2024/01/31 12:44:29;;;;;;;35.4;21.8;;;;;;;4.16;75.11;100144;;;;
2024/01/31 12:55:29;;;;;;;35.4;21.8;;;;;;;4.05;75.42;100156;;;;
2024/01/31 13:05:29;;;;;;;35.1;21.5;;;;;;;4.21;75.11;100131.66666667;;;;
2024/01/31 13:15:29;;;;;;;35.1;21.5;;;;;;;4.29;75.32;100136;;;;
2024/01/31 13:25:29;;;;;;;35.1;21.5;;;;;;;4.28;75.54;100134;;;;
2024/01/31 13:35:29;;;;;;;31.6;21.6;;;;;;;4.24;75.69;100146;;;;
2024/01/31 13:46:29;;;;;;;31.6;21.6;;;;;;;4.2;76.83;100108;;;;
2024/01/31 13:56:29;;;;;;;31.6;21.6;;;;;;;4.2;78.45;100100;;;;
2024/01/31 14:06:29;;;;;;;37.3;22.3;;;;;;;4.29;79.15;100098;;;;
2024/01/31 14:17:29;;;;;;;37.3;22.3;;;;;;;4.38;78.89;100102;;;;
2024/01/31 14:27:29;;;;;;;37.3;22.3;;;;;;;4.39;79.19;100120;;;;
2024/01/31 14:38:29;;;;;;;40.3;24.5;;;;;;;4.2;79.48;100120;;;;
2024/01/31 14:48:29;;;;;;;40.3;24.5;;;;;;;4.14;79.57;100126.66666667;;;;
2024/01/31 14:58:29;;;;;;;40.3;24.5;;;;;;;3.9;80.55;100105;;;;
2024/01/31 15:09:29;;;;;;;46.2;28.7;;;;;;;4.08;79.9;100106.66666667;;;;
2024/01/31 15:20:29;;;;;;;46.2;28.7;;;;;;;4.12;79.94;100111.66666667;;;;
2024/01/31 15:31:30;;;;;;;33;23.3;;;;;;;4.02;80.25;100106.66666667;;;;
2024/01/31 15:42:29;;;;;;;33;23.3;;;;;;;4.04;80.52;100090;;;;
2024/01/31 15:52:29;;;;;;;33;23.3;;;;;;;4.03;80.85;100078.33333333;;;;
2024/01/31 16:02:29;;;;;;;40.8;25.6;;;;;;;3.98;81.45;100063.33333333;;;;
2024/01/31 16:12:29;;;;;;;40.8;25.6;;;;;;;4;81.85;100068.33333333;;;;
2024/01/31 16:23:29;;;;;;;40.8;25.6;;;;;;;3.93;82.91;100043.33333333;;;;
2024/01/31 16:33:29;;;;;;;45.4;27.2;;;;;;;3.9;83.17;100046.66666667;;;;
2024/01/31 16:43:29;;;;;;;45.4;27.2;;;;;;;3.94;83.13;100036.66666667;;;;
2024/01/31 16:54:29;;;;;;;45.4;27.2;;;;;;;3.94;83.01;100028.33333333;;;;
2024/01/31 17:05:29;;;;;;;39.6;28.2;;;;;;;4.01;82.77;100020;;;;
2024/01/31 17:15:29;;;;;;;39.6;28.2;;;;;;;4.13;82.27;100031.66666667;;;;
2024/01/31 17:25:29;;;;;;;39.6;28.2;;;;;;;4.07;82.48;100018.33333333;;;;
2024/01/31 17:36:29;;;;;;;49.7;34.1;;;;;;;4.08;82.37;100023.33333333;;;;
2024/01/31 17:47:29;;;;;;;49.7;34.1;;;;;;;3.97;82.66;100028.33333333;;;;
2024/01/31 17:58:29;;;;;;;49.7;34.1;;;;;;;3.89;83.31;100025;;;;
2024/01/31 18:09:29;;;;;;;62.7;40;;;;;;;3.95;83.14;100028.33333333;;;;
2024/01/31 18:19:29;;;;;;;62.7;40;;;;;;;3.62;84.59;100033.33333333;;;;
2024/01/31 18:29:29;;;;;;;77.9;45.3;;;;;;;3.85;83.94;100036.66666667;;;;
2024/01/31 18:39:29;;;;;;;77.9;45.3;;;;;;;3.84;84.14;100021.66666667;;;;
2024/01/31 18:50:29;;;;;;;77.9;45.3;;;;;;;3.63;84.15;100011.66666667;;;;
2024/01/31 19:01:29;;;;;;;63.3;38.8;;;;;;;3.75;83.93;100000;;;;
2024/01/31 19:12:29;;;;;;;63.3;38.8;;;;;;;3.58;84.64;99981.666666667;;;;
2024/01/31 19:22:30;;;;;;;63.3;38.8;;;;;;;3.47;83.99;99976.666666667;;;;
2024/01/31 19:33:29;;;;;;;60.1;42.1;;;;;;;3.51;83.92;99966.666666667;;;;
2024/01/31 19:44:29;;;;;;;60.1;42.1;;;;;;;3.51;83.67;99963.333333333;;;;
2024/01/31 19:55:29;;;;;;;60.1;42.1;;;;;;;3.32;84.77;99941.666666667;;;;
2024/01/31 20:06:29;;;;;;;58.3;36.1;;;;;;;3.1;85.79;99925;;;;
2024/01/31 20:17:30;;;;;;;58.3;36.1;;;;;;;3.26;84.99;99903.333333333;;;;
2024/01/31 20:27:30;;;;;;;58.3;36.1;;;;;;;3.37;85.34;99868.333333333;;;;
2024/01/31 20:38:29;;;;;;;57.1;34.1;;;;;;;3.34;85.42;99856.666666667;;;;
2024/01/31 20:49:29;;;;;;;57.1;34.1;;;;;;;3.42;85.52;99848.333333333;;;;
2024/01/31 21:00:29;;;;;;;52.4;31.4;;;;;;;3.15;85.12;99833.333333333;;;;
2024/01/31 21:11:29;;;;;;;52.4;31.4;;;;;;;2.72;85.21;99813.333333333;;;;
2024/01/31 21:22:29;;;;;;;52.4;31.4;;;;;;;2.38;85.15;99791.666666667;;;;
2024/01/31 21:32:29;;;;;;;88.9;47.9;;;;;;;2.07;84.9;99786.666666667;;;;
2024/01/31 21:42:29;;;;;;;88.9;47.9;;;;;;;1.75;84.98;99773.333333333;;;;
2024/01/31 21:53:29;;;;;;;88.9;47.9;;;;;;;1.38;85.15;99763.333333333;;;;
2024/01/31 22:04:29;;;;;;;65;37.2;;;;;;;1.12;85.71;99745;;;;
2024/01/31 22:15:29;;;;;;;65;37.2;;;;;;;0.91;86.34;99733.333333333;;;;
2024/01/31 22:26:29;;;;;;;65;37.2;;;;;;;0.73;86.89;99721.666666667;;;;
2024/01/31 22:37:29;;;;;;;50.8;32.2;;;;;;;0.67;87.53;99716.666666667;;;;
2024/01/31 22:48:29;;;;;;;50.8;32.2;;;;;;;0.65;88.3;99691.666666667;;;;
2024/01/31 22:59:29;;;;;;;62;37.8;;;;;;;0.86;89.02;99695;;;;
2024/01/31 23:10:29;;;;;;;62;37.8;;;;;;;1.16;89.4;99671.666666667;;;;
2024/01/31 23:20:29;;;;;;;62;37.8;;;;;;;1.42;89.3;99641.666666667;;;;
2024/01/31 23:30:29;;;;;;;75.3;41.2;;;;;;;1.69;89.33;99635;;;;
2024/01/31 23:41:29;;;;;;;75.3;41.2;;;;;;;1.97;89.48;99620;;;;
2024/01/31 23:51:29;;;;;;;75.3;41.2;;;;;;;2.16;89.32;99605;;;;
